createdAt,value
2023-04-16T00:00:51.158Z,8.19
2023-04-16T00:03:18.542Z,8.18
2023-04-16T00:05:45.886Z,8.13
2023-04-16T00:08:13.585Z,8.03
2023-04-16T00:10:55.891Z,7.95
2023-04-16T00:13:23.177Z,8.01
2023-04-16T00:15:50.753Z,7.95
2023-04-16T00:18:18.043Z,7.98
2023-04-16T00:20:45.460Z,8.06
2023-04-16T00:23:13.281Z,7.95
2023-04-16T00:25:40.737Z,7.87
2023-04-16T00:28:09.048Z,7.98
2023-04-16T00:30:39.037Z,7.83
2023-04-16T00:33:13.568Z,7.69
2023-04-16T00:35:47.452Z,7.53
2023-04-16T00:38:21.944Z,7.49
2023-04-16T00:40:49.233Z,7.47
2023-04-16T00:43:37.021Z,7.50
2023-04-16T00:46:07.477Z,7.46
2023-04-16T00:48:36.801Z,7.51
2023-04-16T00:51:09.059Z,7.55
2023-04-16T00:53:36.717Z,7.51
2023-04-16T00:56:07.034Z,7.64
2023-04-16T00:58:35.917Z,7.71
2023-04-16T01:01:09.259Z,7.93
2023-04-16T01:03:47.629Z,7.82
2023-04-16T01:06:16.999Z,7.92
2023-04-16T01:08:46.452Z,7.85
2023-04-16T01:11:15.335Z,7.79
2023-04-16T01:13:42.540Z,7.74
2023-04-16T01:16:11.647Z,7.70
2023-04-16T01:18:39.907Z,7.56
2023-04-16T01:21:08.688Z,7.66
2023-04-16T01:23:38.034Z,7.64
2023-04-16T01:26:05.632Z,7.45
2023-04-16T01:28:33.235Z,7.38
2023-04-16T01:31:02.715Z,7.47
2023-04-16T01:33:31.094Z,7.56
2023-04-16T01:35:58.811Z,7.54
2023-04-16T01:38:26.004Z,7.53
2023-04-16T01:41:00.891Z,7.51
2023-04-16T01:43:29.104Z,7.44
2023-04-16T01:46:14.095Z,7.50
2023-04-16T01:48:41.434Z,7.66
2023-04-16T01:51:08.849Z,7.55
2023-04-16T01:53:37.224Z,7.61
2023-04-16T01:56:05.011Z,7.69
2023-04-16T01:58:34.220Z,7.67
2023-04-16T02:01:01.771Z,7.69
2023-04-16T02:03:28.939Z,7.76
2023-04-16T02:05:56.231Z,7.93
2023-04-16T02:08:24.657Z,7.91
2023-04-16T02:10:52.116Z,7.94
2023-04-16T02:13:19.507Z,7.96
2023-04-16T02:15:48.766Z,7.94
2023-04-16T02:18:17.345Z,7.99
2023-04-16T02:20:52.674Z,8.02
2023-04-16T02:23:20.069Z,7.99
2023-04-16T02:25:47.909Z,8.01
2023-04-16T02:28:17.165Z,7.97
2023-04-16T02:30:44.942Z,7.96
2023-04-16T02:33:13.051Z,8.02
2023-04-16T02:35:40.786Z,7.99
2023-04-16T02:38:10.721Z,8.01
2023-04-16T02:40:40.013Z,8.17
2023-04-16T02:43:07.564Z,7.98
2023-04-16T02:45:35.040Z,7.74
2023-04-16T02:48:02.425Z,7.55
2023-04-16T02:50:29.848Z,7.42
2023-04-16T02:52:57.276Z,7.46
2023-04-16T02:55:24.738Z,7.63
2023-04-16T02:57:53.332Z,7.50
2023-04-16T03:00:21.803Z,7.50
2023-04-16T03:02:49.193Z,7.49
2023-04-16T03:05:22.733Z,7.51
2023-04-16T03:07:50.940Z,7.46
2023-04-16T03:10:19.228Z,7.43
2023-04-16T03:12:46.683Z,7.41
2023-04-16T03:15:14.187Z,7.47
2023-04-16T03:17:41.806Z,7.38
2023-04-16T03:20:10.575Z,7.49
2023-04-16T03:22:39.699Z,7.43
2023-04-16T03:25:08.242Z,7.38
2023-04-16T03:27:36.497Z,7.38
2023-04-16T03:30:05.400Z,7.35
2023-04-16T03:32:38.764Z,7.47
2023-04-16T03:35:07.786Z,7.52
2023-04-16T03:37:41.264Z,7.50
2023-04-16T03:40:08.939Z,7.57
2023-04-16T03:42:38.130Z,7.55
2023-04-16T03:45:11.479Z,7.49
2023-04-16T03:47:38.744Z,7.45
2023-04-16T03:50:11.925Z,7.45
2023-04-16T03:52:39.411Z,7.42
2023-04-16T03:55:07.195Z,7.43
2023-04-16T03:57:34.275Z,7.34
2023-04-16T04:00:01.823Z,7.35
2023-04-16T04:02:29.262Z,7.35
2023-04-16T04:04:56.680Z,7.30
2023-04-16T04:07:24.330Z,7.35
2023-04-16T04:09:51.450Z,7.36
2023-04-16T04:12:18.929Z,7.41
2023-04-16T04:14:46.407Z,7.37
2023-04-16T04:17:13.832Z,7.40
2023-04-16T04:19:47.137Z,7.37
2023-04-16T04:22:24.434Z,7.29
2023-04-16T04:24:52.530Z,7.29
2023-04-16T04:27:20.058Z,7.29
2023-04-16T04:29:47.688Z,7.36
2023-04-16T04:32:16.013Z,7.37
2023-04-16T04:34:43.480Z,7.35
2023-04-16T04:37:11.009Z,7.31
2023-04-16T04:39:38.427Z,7.39
2023-04-16T04:42:06.320Z,7.42
2023-04-16T04:44:33.833Z,7.47
2023-04-16T04:47:00.807Z,7.51
2023-04-16T04:49:28.396Z,7.59
2023-04-16T04:51:55.790Z,7.56
2023-04-16T04:54:24.385Z,7.51
2023-04-16T04:56:52.780Z,7.53
2023-04-16T04:59:21.685Z,7.49
2023-04-16T05:01:49.304Z,7.45
2023-04-16T05:04:16.510Z,7.40
2023-04-16T05:06:46.622Z,7.47
2023-04-16T05:09:13.718Z,7.40
2023-04-16T05:11:50.753Z,7.44
2023-04-16T05:14:17.893Z,7.45
2023-04-16T05:16:45.380Z,7.44
2023-04-16T05:19:13.812Z,7.49
2023-04-16T05:21:41.355Z,7.60
2023-04-16T05:24:08.759Z,7.65
2023-04-16T05:26:37.351Z,7.66
2023-04-16T05:29:04.930Z,7.64
2023-04-16T05:31:33.221Z,7.78
2023-04-16T05:34:00.633Z,7.77
2023-04-16T05:36:28.390Z,7.81
2023-04-16T05:38:55.490Z,7.94
2023-04-16T05:41:23.186Z,7.99
2023-04-16T05:43:50.517Z,7.97
2023-04-16T05:46:18.040Z,7.90
2023-04-16T05:48:45.464Z,7.95
2023-04-16T05:51:12.847Z,8.01
2023-04-16T05:53:41.287Z,8.02
2023-04-16T05:56:10.935Z,8.03
2023-04-16T05:58:39.493Z,8.07
2023-04-16T06:01:08.886Z,8.13
2023-04-16T06:03:36.064Z,8.34
2023-04-16T06:06:03.376Z,8.26
2023-04-16T06:08:32.777Z,8.49
2023-04-16T06:11:00.324Z,8.45
2023-04-16T06:13:29.742Z,8.43
2023-04-16T06:15:58.271Z,8.43
2023-04-16T06:18:26.812Z,8.22
2023-04-16T06:20:56.571Z,8.31
2023-04-16T06:23:25.269Z,8.48
2023-04-16T06:25:59.092Z,8.31
2023-04-16T06:28:27.251Z,8.18
2023-04-16T06:30:54.743Z,8.16
2023-04-16T06:33:22.240Z,8.19
2023-04-16T06:35:50.095Z,8.26
2023-04-16T06:38:17.634Z,8.37
2023-04-16T06:40:59.627Z,8.48
2023-04-16T06:43:27.437Z,8.58
2023-04-16T06:45:55.892Z,8.53
2023-04-16T06:48:23.269Z,8.60
2023-04-16T06:50:51.206Z,8.67
2023-04-16T06:53:18.848Z,8.54
2023-04-16T06:55:46.237Z,8.65
2023-04-16T06:58:14.662Z,8.83
2023-04-16T07:00:42.109Z,8.80
2023-04-16T07:03:09.808Z,8.95
2023-04-16T07:05:37.584Z,8.98
2023-04-16T07:08:05.075Z,8.92
2023-04-16T07:10:32.454Z,9.17
2023-04-16T07:13:03.515Z,9.30
2023-04-16T07:15:30.985Z,9.40
2023-04-16T07:17:58.628Z,9.46
2023-04-16T07:20:27.128Z,9.45
2023-04-16T07:22:54.710Z,9.58
2023-04-16T07:25:22.179Z,9.89
2023-04-16T07:27:49.703Z,9.76
2023-04-16T07:30:17.296Z,10.08
2023-04-16T07:32:44.652Z,10.13
2023-04-16T07:35:12.170Z,10.48
2023-04-16T07:37:39.550Z,10.71
2023-04-16T07:40:09.268Z,11.04
2023-04-16T07:42:38.749Z,11.32
2023-04-16T07:45:12.114Z,11.56
2023-04-16T07:47:39.686Z,11.65
2023-04-16T07:50:07.633Z,11.40
2023-04-16T07:52:35.710Z,11.51
2023-04-16T07:55:03.180Z,11.38
2023-04-16T07:57:32.527Z,11.13
2023-04-16T08:00:02.567Z,11.50
2023-04-16T08:02:30.044Z,11.84
2023-04-16T08:04:57.345Z,11.97
2023-04-16T08:07:24.892Z,12.02
2023-04-16T08:09:53.600Z,12.18
2023-04-16T08:12:21.509Z,12.01
2023-04-16T08:14:49.012Z,12.15
2023-04-16T08:17:16.435Z,12.22
2023-04-16T08:19:45.401Z,11.97
2023-04-16T08:22:15.162Z,11.94
2023-04-16T08:24:42.452Z,12.06
2023-04-16T08:27:19.342Z,12.15
2023-04-16T08:29:48.422Z,12.29
2023-04-16T08:32:16.933Z,12.46
2023-04-16T08:34:44.473Z,12.57
2023-04-16T08:37:17.986Z,12.65
2023-04-16T08:39:45.634Z,12.81
2023-04-16T08:42:23.980Z,13.02
2023-04-16T08:44:58.594Z,13.43
2023-04-16T08:47:27.459Z,13.73
2023-04-16T08:49:59.216Z,13.79
2023-04-16T08:52:31.613Z,13.75
2023-04-16T08:55:07.351Z,13.68
2023-04-16T08:57:42.675Z,13.60
2023-04-16T09:00:11.535Z,13.59
2023-04-16T09:02:39.875Z,13.91
2023-04-16T09:05:08.540Z,14.36
2023-04-16T09:07:36.929Z,14.75
2023-04-16T09:10:04.659Z,14.99
2023-04-16T09:12:33.544Z,15.25
2023-04-16T09:15:03.356Z,15.56
2023-04-16T09:17:31.565Z,15.64
2023-04-16T09:19:59.389Z,15.52
2023-04-16T09:22:26.507Z,15.86
2023-04-16T09:24:55.165Z,16.16
2023-04-16T09:27:25.386Z,16.38
2023-04-16T09:29:53.613Z,16.68
2023-04-16T09:32:27.556Z,16.92
2023-04-16T09:35:02.699Z,16.96
2023-04-16T09:37:31.458Z,16.90
2023-04-16T09:40:04.137Z,17.15
2023-04-16T09:42:34.606Z,17.06
2023-04-16T09:45:04.956Z,17.22
2023-04-16T09:47:44.018Z,17.48
2023-04-16T09:50:18.671Z,17.73
2023-04-16T09:52:51.569Z,18.04
2023-04-16T09:55:27.363Z,17.99
2023-04-16T09:58:05.843Z,18.23
2023-04-16T10:00:33.075Z,18.59
2023-04-16T10:03:07.453Z,18.78
2023-04-16T10:05:36.790Z,18.67
2023-04-16T10:08:12.482Z,18.68
2023-04-16T10:10:40.259Z,18.64
2023-04-16T10:13:08.148Z,18.57
2023-04-16T10:15:35.939Z,18.74
2023-04-16T10:18:05.520Z,19.02
2023-04-16T10:20:33.172Z,19.40
2023-04-16T10:23:02.377Z,19.52
2023-04-16T10:25:35.979Z,19.63
2023-04-16T10:28:10.722Z,19.63
2023-04-16T10:30:39.983Z,19.86
2023-04-16T10:33:08.458Z,19.73
2023-04-16T10:35:40.736Z,19.82
2023-04-16T10:38:28.549Z,19.87
2023-04-16T10:41:06.761Z,19.90
2023-04-16T10:43:40.395Z,19.80
2023-04-16T10:46:31.606Z,19.15
2023-04-16T10:49:12.578Z,19.07
2023-04-16T10:51:39.982Z,19.06
2023-04-16T10:54:12.897Z,19.57
2023-04-16T10:56:40.548Z,19.77
2023-04-16T10:59:11.183Z,19.80
2023-04-16T11:01:45.744Z,20.35
2023-04-16T11:04:22.356Z,20.59
2023-04-16T11:07:16.925Z,21.20
2023-04-16T11:10:05.451Z,21.75
2023-04-16T11:12:47.164Z,22.15
2023-04-16T11:15:16.553Z,22.33
2023-04-16T11:17:46.738Z,22.11
2023-04-16T11:20:22.739Z,22.32
2023-04-16T11:22:51.404Z,22.71
2023-04-16T11:25:24.740Z,22.80
2023-04-16T11:27:54.084Z,23.00
2023-04-16T11:30:38.938Z,23.21
2023-04-16T11:33:09.186Z,22.92
2023-04-16T11:35:36.654Z,23.37
2023-04-16T11:38:07.844Z,23.79
2023-04-16T11:40:36.759Z,24.19
2023-04-16T11:43:14.266Z,24.44
2023-04-16T11:46:10.250Z,24.58
2023-04-16T11:48:54.551Z,24.52
2023-04-16T11:51:23.855Z,23.08
2023-04-16T11:53:53.515Z,22.21
2023-04-16T11:56:33.045Z,20.75
2023-04-16T11:59:14.594Z,19.89
2023-04-16T12:01:43.173Z,19.31
2023-04-16T12:04:10.482Z,19.11
2023-04-16T12:06:37.982Z,18.84
2023-04-16T12:09:27.663Z,19.07
2023-04-16T12:11:55.186Z,19.17
2023-04-16T12:14:23.700Z,19.03
2023-04-16T12:16:51.215Z,19.11
2023-04-16T12:19:18.580Z,19.27
2023-04-16T12:21:48.278Z,19.41
2023-04-16T12:24:17.433Z,19.36
2023-04-16T12:26:49.123Z,19.30
2023-04-16T12:29:28.351Z,19.26
2023-04-16T12:31:56.104Z,19.03
2023-04-16T12:34:29.073Z,18.90
2023-04-16T12:37:11.290Z,18.85
2023-04-16T12:39:38.544Z,18.76
2023-04-16T12:42:10.257Z,18.72
2023-04-16T12:44:38.659Z,18.56
2023-04-16T12:47:06.252Z,18.42
2023-04-16T12:49:35.589Z,18.27
2023-04-16T12:52:03.690Z,18.06
2023-04-16T12:54:31.636Z,17.98
2023-04-16T12:57:01.970Z,18.00
2023-04-16T12:59:29.686Z,18.07
2023-04-16T13:01:57.103Z,18.13
2023-04-16T13:04:25.684Z,18.10
2023-04-16T13:06:53.089Z,18.11
2023-04-16T13:09:21.773Z,18.08
2023-04-16T13:11:48.897Z,18.08
2023-04-16T13:14:16.544Z,18.05
2023-04-16T13:16:45.958Z,18.01
2023-04-16T13:19:13.675Z,18.03
2023-04-16T13:21:41.519Z,18.08
2023-04-16T13:24:08.821Z,18.08
2023-04-16T13:26:36.391Z,18.18
2023-04-16T13:29:04.460Z,18.25
2023-04-16T13:31:33.491Z,18.30
2023-04-16T13:34:01.621Z,18.31
2023-04-16T13:36:30.326Z,18.37
2023-04-16T13:39:01.933Z,18.41
2023-04-16T13:41:30.705Z,18.34
2023-04-16T13:44:00.346Z,18.33
2023-04-16T13:46:29.913Z,18.41
2023-04-16T13:48:57.315Z,18.56
2023-04-16T13:51:24.756Z,18.58
2023-04-16T13:53:52.185Z,18.82
2023-04-16T13:56:19.879Z,19.08
2023-04-16T13:58:47.674Z,19.31
2023-04-16T14:01:16.515Z,19.48
2023-04-16T14:03:43.740Z,19.63
2023-04-16T14:06:11.116Z,20.08
2023-04-16T14:08:39.632Z,20.67
2023-04-16T14:11:07.006Z,21.37
2023-04-16T14:13:34.563Z,22.02
2023-04-16T14:16:03.002Z,22.15
2023-04-16T14:18:31.534Z,22.16
2023-04-16T14:21:02.829Z,21.79
2023-04-16T14:23:32.303Z,21.64
2023-04-16T14:26:01.890Z,20.32
2023-04-16T14:28:29.420Z,20.38
2023-04-16T14:30:57.770Z,20.50
2023-04-16T14:33:25.147Z,21.30
2023-04-16T14:35:53.085Z,22.24
2023-04-16T14:38:21.278Z,23.11
2023-04-16T14:40:49.721Z,23.80
2023-04-16T14:43:17.099Z,24.12
2023-04-16T14:45:51.162Z,24.36
2023-04-16T14:48:18.937Z,24.56
2023-04-16T14:50:46.726Z,24.58
2023-04-16T14:53:14.355Z,24.83
2023-04-16T14:55:41.562Z,24.85
2023-04-16T14:58:09.031Z,24.89
2023-04-16T15:00:38.929Z,25.24
2023-04-16T15:03:06.894Z,25.19
2023-04-16T15:05:36.158Z,24.56
2023-04-16T15:08:05.829Z,23.52
2023-04-16T15:10:33.656Z,22.77
2023-04-16T15:13:01.506Z,22.61
2023-04-16T15:15:28.928Z,22.33
2023-04-16T15:17:57.592Z,22.17
2023-04-16T15:20:24.804Z,21.89
2023-04-16T15:22:55.839Z,21.69
2023-04-16T15:25:24.578Z,21.74
2023-04-16T15:27:53.046Z,20.97
2023-04-16T15:30:22.678Z,20.64
2023-04-16T15:32:50.552Z,20.46
2023-04-16T15:35:20.064Z,20.24
2023-04-16T15:37:47.608Z,20.10
2023-04-16T15:40:16.368Z,19.96
2023-04-16T15:42:44.537Z,19.49
2023-04-16T15:45:14.258Z,19.51
2023-04-16T15:47:45.627Z,19.41
2023-04-16T15:50:13.167Z,19.38
2023-04-16T15:52:41.164Z,19.19
2023-04-16T15:55:08.384Z,19.20
2023-04-16T15:57:36.387Z,19.08
2023-04-16T16:00:13.764Z,18.94
2023-04-16T16:02:42.686Z,18.73
2023-04-16T16:05:11.821Z,18.32
2023-04-16T16:07:40.049Z,17.84
2023-04-16T16:10:11.272Z,17.96
2023-04-16T16:12:39.650Z,17.93
2023-04-16T16:15:08.258Z,17.69
2023-04-16T16:17:36.591Z,17.67
2023-04-16T16:20:04.863Z,17.54
2023-04-16T16:22:32.684Z,17.48
2023-04-16T16:25:00.731Z,17.48
2023-04-16T16:27:31.811Z,17.55
2023-04-16T16:30:01.107Z,17.53
2023-04-16T16:32:29.208Z,17.57
2023-04-16T16:34:58.806Z,17.69
2023-04-16T16:37:27.121Z,17.72
2023-04-16T16:39:55.125Z,17.75
2023-04-16T16:42:23.239Z,17.66
2023-04-16T16:44:50.796Z,17.41
2023-04-16T16:47:18.570Z,17.20
2023-04-16T16:49:47.658Z,17.15
2023-04-16T16:52:15.239Z,17.15
2023-04-16T16:54:45.163Z,17.03
2023-04-16T16:57:13.339Z,16.87
2023-04-16T16:59:41.589Z,16.78
2023-04-16T17:02:13.367Z,16.64
2023-04-16T17:04:42.467Z,16.40
2023-04-16T17:07:10.531Z,16.19
2023-04-16T17:09:39.439Z,16.02
2023-04-16T17:12:07.677Z,15.92
2023-04-16T17:14:35.835Z,15.86
2023-04-16T17:17:05.135Z,15.65
2023-04-16T17:19:33.290Z,15.55
2023-04-16T17:22:01.192Z,15.44
2023-04-16T17:24:28.792Z,15.53
2023-04-16T17:26:58.691Z,15.35
2023-04-16T17:29:27.403Z,15.27
2023-04-16T17:31:56.121Z,15.17
2023-04-16T17:34:24.150Z,15.03
2023-04-16T17:36:53.163Z,15.00
2023-04-16T17:39:23.909Z,14.89
2023-04-16T17:41:55.508Z,14.78
2023-04-16T17:44:30.884Z,14.57
2023-04-16T17:46:59.401Z,14.58
2023-04-16T17:49:27.494Z,14.56
2023-04-16T17:52:01.240Z,14.41
2023-04-16T17:54:32.360Z,14.37
2023-04-16T17:56:59.906Z,14.11
2023-04-16T17:59:27.761Z,13.92
2023-04-16T18:01:57.517Z,13.23
2023-04-16T18:04:25.772Z,12.53
2023-04-16T18:06:53.040Z,12.59
2023-04-16T18:09:22.389Z,12.88
2023-04-16T18:11:50.671Z,12.71
2023-04-16T18:14:23.311Z,12.41
2023-04-16T18:16:51.538Z,11.53
2023-04-16T18:19:22.368Z,11.60
2023-04-16T18:21:49.920Z,11.88
2023-04-16T18:24:18.315Z,12.15
2023-04-16T18:26:47.688Z,12.14
2023-04-16T18:29:16.860Z,12.13
2023-04-16T18:31:47.454Z,12.07
2023-04-16T18:34:16.697Z,11.99
2023-04-16T18:36:46.207Z,12.04
2023-04-16T18:39:13.843Z,11.78
2023-04-16T18:41:44.471Z,11.32
2023-04-16T18:44:16.304Z,11.20
2023-04-16T18:46:47.023Z,10.80
2023-04-16T18:49:17.156Z,10.41
2023-04-16T18:51:45.193Z,10.17
2023-04-16T18:54:13.090Z,9.95
2023-04-16T18:56:41.113Z,10.35
2023-04-16T18:59:10.555Z,10.76
2023-04-16T19:01:41.221Z,10.82
2023-04-16T19:04:09.161Z,10.74
2023-04-16T19:06:38.168Z,10.57
2023-04-16T19:09:06.354Z,10.13
2023-04-16T19:11:34.696Z,9.80
2023-04-16T19:14:03.570Z,9.66
2023-04-16T19:16:31.366Z,9.88
2023-04-16T19:18:59.159Z,10.03
2023-04-16T19:21:28.387Z,9.82
2023-04-16T19:24:05.178Z,9.71
2023-04-16T19:26:36.152Z,9.69
2023-04-16T19:29:05.222Z,9.58
2023-04-16T19:31:34.289Z,9.55
2023-04-16T19:34:02.109Z,9.32
2023-04-16T19:36:34.944Z,9.18
2023-04-16T19:39:04.519Z,8.99
2023-04-16T19:41:33.747Z,9.01
2023-04-16T19:44:01.219Z,8.93
2023-04-16T19:46:29.380Z,8.77
2023-04-16T19:48:57.697Z,8.61
2023-04-16T19:51:25.839Z,8.76
2023-04-16T19:53:54.500Z,9.14
2023-04-16T19:56:22.770Z,8.88
2023-04-16T19:58:50.896Z,8.71
2023-04-16T20:01:20.432Z,8.57
2023-04-16T20:03:48.742Z,8.56
2023-04-16T20:06:22.001Z,8.56
2023-04-16T20:08:52.123Z,8.94
2023-04-16T20:11:19.932Z,9.24
2023-04-16T20:13:48.493Z,9.44
2023-04-16T20:16:17.815Z,9.36
2023-04-16T20:18:46.578Z,9.29
2023-04-16T20:21:17.594Z,8.81
2023-04-16T20:23:45.314Z,8.75
2023-04-16T20:26:34.479Z,8.72
2023-04-16T20:29:01.977Z,8.73
2023-04-16T20:31:31.464Z,8.59
2023-04-16T20:33:59.692Z,8.55
2023-04-16T20:36:28.205Z,8.94
2023-04-16T20:38:59.757Z,9.01
2023-04-16T20:41:30.517Z,9.16
2023-04-16T20:43:57.826Z,8.78
2023-04-16T20:46:30.614Z,9.02
2023-04-16T20:48:57.743Z,9.23
2023-04-16T20:51:31.974Z,9.20
2023-04-16T20:53:59.261Z,9.10
2023-04-16T20:56:26.673Z,9.24
2023-04-16T20:58:54.349Z,9.19
2023-04-16T21:01:23.786Z,9.39
2023-04-16T21:03:51.634Z,9.49
2023-04-16T21:06:22.827Z,9.52
2023-04-16T21:08:51.031Z,9.56
2023-04-16T21:11:19.220Z,9.60
2023-04-16T21:13:46.566Z,9.64
2023-04-16T21:16:14.225Z,9.52
2023-04-16T21:18:41.848Z,9.67
2023-04-16T21:21:09.996Z,9.76
2023-04-16T21:23:37.489Z,9.80
2023-04-16T21:26:06.991Z,9.63
2023-04-16T21:28:34.413Z,9.65
2023-04-16T21:31:02.009Z,9.67
2023-04-16T21:33:30.448Z,9.54
2023-04-16T21:35:58.858Z,9.32
2023-04-16T21:38:26.369Z,9.53
2023-04-16T21:40:59.409Z,9.44
2023-04-16T21:43:30.755Z,9.41
2023-04-16T21:45:58.574Z,9.59
2023-04-16T21:48:26.228Z,9.49
2023-04-16T21:51:00.132Z,9.23
2023-04-16T21:53:32.172Z,9.24
2023-04-16T21:55:59.742Z,8.99
2023-04-16T21:58:27.026Z,8.86
2023-04-16T22:00:54.873Z,8.51
2023-04-16T22:03:28.215Z,8.36
2023-04-16T22:06:02.295Z,8.49
2023-04-16T22:08:30.559Z,8.43
2023-04-16T22:11:02.094Z,8.47
2023-04-16T22:13:32.646Z,8.19
2023-04-16T22:16:03.552Z,8.16
2023-04-16T22:18:33.943Z,8.02
2023-04-16T22:21:01.831Z,7.92
2023-04-16T22:23:29.268Z,7.81
2023-04-16T22:25:57.476Z,7.74
2023-04-16T22:28:24.732Z,8.08
2023-04-16T22:30:54.008Z,7.92
2023-04-16T22:33:21.522Z,7.94
2023-04-16T22:35:48.938Z,8.03
2023-04-16T22:38:16.812Z,8.01
2023-04-16T22:40:47.135Z,8.16
2023-04-16T22:43:16.352Z,8.24
2023-04-16T22:45:46.520Z,8.13
2023-04-16T22:48:13.812Z,8.09
2023-04-16T22:50:46.274Z,7.94
2023-04-16T22:53:13.398Z,7.97
2023-04-16T22:55:41.980Z,7.85
2023-04-16T22:58:09.340Z,7.75
2023-04-16T23:00:36.771Z,7.80
2023-04-16T23:03:04.363Z,7.94
2023-04-16T23:05:31.891Z,7.92
2023-04-16T23:07:59.156Z,7.99
2023-04-16T23:10:26.529Z,8.06
2023-04-16T23:12:54.027Z,8.16
2023-04-16T23:15:21.508Z,7.95
2023-04-16T23:17:49.035Z,7.99
2023-04-16T23:20:16.562Z,8.11
2023-04-16T23:22:44.066Z,8.34
2023-04-16T23:25:18.439Z,8.23
2023-04-16T23:27:46.017Z,7.86
2023-04-16T23:30:19.559Z,7.70
2023-04-16T23:32:47.010Z,7.61
2023-04-16T23:35:20.604Z,7.68
2023-04-16T23:37:48.149Z,7.97
2023-04-16T23:40:16.139Z,8.08
2023-04-16T23:42:44.548Z,8.16
2023-04-16T23:45:12.205Z,8.20
2023-04-16T23:47:41.597Z,7.83
2023-04-16T23:50:09.444Z,7.74
2023-04-16T23:52:36.987Z,7.87
2023-04-16T23:55:06.671Z,7.75
2023-04-16T23:57:35.924Z,7.71
